YBBN/BNE METAR and TAF weather

Enter ICAO airport designator
Station Type Date Time Source
YBBN METAR 2021/08/04 19:00 UTC NOAA

YBBN 041900Z 24010KT CAVOK 09/03 Q1018


Station Type Date Time Source
YBBN Decoded METAR 2021/08/04 19:00 UTC NOAA

Brisbane Airport M. O, Australia (YBBN) 27-23S 153-06E 5M
Aug 04, 2021 - 03:00 PM EDT / 2021.08.04 1900 UTC
Wind: from the WSW (240 degrees) at 12 MPH (10 KT):0
Visibility: greater than 7 mile(s):0
Temperature: 48 F (9 C)
Dew Point: 37 F (3 C)
Relative Humidity: 66%
Pressure (altimeter): 30.06 in. Hg (1018 hPa)
ob: YBBN 041900Z 24010KT CAVOK 09/03 Q1018
cycle: 19

Station Type Date Time Source
YBBN TAF 2021/08/04 18:36 UTC NOAA

TAF YBBN 041707Z 0418/0600 25012KT CAVOK
FM050500 06006KT CAVOK
FM050900 23010KT CAVOK

Example: see airport list